createdAt,value
2022-12-25T00:01:18.940Z,96.28
2022-12-25T00:03:46.569Z,95.98
2022-12-25T00:06:13.545Z,95.95
2022-12-25T00:08:41.635Z,95.83
2022-12-25T00:11:16.609Z,95.04
2022-12-25T00:13:44.830Z,95.18
2022-12-25T00:16:20.831Z,94.73
2022-12-25T00:18:48.742Z,94.81
2022-12-25T00:21:15.750Z,94.68
2022-12-25T00:23:43.353Z,94.42
2022-12-25T00:26:13.903Z,94.42
2022-12-25T00:28:41.606Z,94.18
2022-12-25T00:31:11.608Z,94.26
2022-12-25T00:33:41.090Z,94.44
2022-12-25T00:36:09.428Z,94.34
2022-12-25T00:38:38.352Z,94.08
2022-12-25T00:41:07.271Z,94.43
2022-12-25T00:43:34.601Z,94.23
2022-12-25T00:46:03.740Z,94.63
2022-12-25T00:48:31.710Z,93.83
2022-12-25T00:51:01.884Z,94.24
2022-12-25T00:53:29.693Z,94.00
2022-12-25T00:55:59.863Z,94.31
2022-12-25T00:58:30.012Z,93.53
2022-12-25T01:00:57.680Z,93.49
2022-12-25T01:03:25.217Z,93.43
2022-12-25T01:06:01.474Z,93.88
2022-12-25T01:08:38.332Z,93.28
2022-12-25T01:11:07.642Z,94.09
2022-12-25T01:13:37.200Z,93.50
2022-12-25T01:16:11.796Z,93.41
2022-12-25T01:18:38.914Z,93.59
2022-12-25T01:21:08.174Z,93.20
2022-12-25T01:23:35.355Z,93.11
2022-12-25T01:26:06.776Z,92.88
2022-12-25T01:28:34.312Z,92.61
2022-12-25T01:31:01.658Z,93.58
2022-12-25T01:33:29.030Z,93.66
2022-12-25T01:35:56.278Z,93.22
2022-12-25T01:38:23.125Z,93.57
2022-12-25T01:40:50.115Z,93.43
2022-12-25T01:43:25.148Z,92.88
2022-12-25T01:45:52.731Z,93.60
2022-12-25T01:48:25.437Z,93.78
2022-12-25T01:51:31.175Z,93.84
2022-12-25T01:54:02.248Z,93.23
2022-12-25T01:56:31.596Z,93.51
2022-12-25T01:59:00.481Z,93.36
2022-12-25T02:01:27.749Z,93.37
2022-12-25T02:04:13.345Z,93.12
2022-12-25T02:06:41.001Z,93.09
2022-12-25T02:09:08.336Z,93.15
2022-12-25T02:11:53.914Z,93.93
2022-12-25T02:14:21.024Z,93.67
2022-12-25T02:16:59.143Z,93.18
2022-12-25T02:19:53.754Z,94.05
2022-12-25T02:22:48.530Z,93.28
2022-12-25T02:25:52.863Z,93.37
2022-12-25T02:28:46.092Z,93.32
2022-12-25T02:31:27.289Z,93.86
2022-12-25T02:34:13.613Z,93.51
2022-12-25T02:37:10.643Z,93.10
2022-12-25T02:40:00.537Z,93.76
2022-12-25T02:42:50.379Z,93.50
2022-12-25T02:45:47.162Z,93.69
2022-12-25T02:48:36.268Z,93.89
2022-12-25T02:51:27.224Z,93.79
2022-12-25T02:54:17.676Z,93.44
2022-12-25T02:57:08.321Z,93.63
2022-12-25T02:59:59.614Z,94.18
2022-12-25T03:02:48.220Z,94.43
2022-12-25T03:05:39.374Z,93.68
2022-12-25T03:08:16.078Z,93.95
2022-12-25T03:11:07.156Z,93.40
2022-12-25T03:13:39.852Z,93.84
2022-12-25T03:16:26.465Z,94.22
2022-12-25T03:18:57.285Z,94.04
2022-12-25T03:21:42.858Z,93.74
2022-12-25T03:24:28.451Z,93.66
2022-12-25T03:26:57.411Z,94.23
2022-12-25T03:29:49.135Z,94.27
2022-12-25T03:32:16.079Z,94.09
2022-12-25T03:35:16.787Z,94.27
2022-12-25T03:38:32.918Z,94.23
2022-12-25T03:41:34.149Z,94.92
2022-12-25T03:44:31.299Z,95.21
2022-12-25T03:47:31.827Z,95.33
2022-12-25T03:50:37.287Z,95.54
2022-12-25T03:53:29.086Z,95.87
2022-12-25T03:56:16.520Z,96.59
2022-12-25T03:59:17.809Z,96.08
2022-12-25T04:02:08.782Z,96.83
2022-12-25T04:04:53.983Z,96.89
2022-12-25T04:07:39.506Z,97.34
2022-12-25T04:10:25.738Z,97.11
2022-12-25T04:13:11.192Z,97.19
2022-12-25T04:15:57.027Z,97.16
2022-12-25T04:18:42.579Z,96.90
2022-12-25T04:21:27.965Z,97.08
2022-12-25T04:24:13.375Z,97.04
2022-12-25T04:26:59.083Z,97.34
2022-12-25T04:29:45.221Z,97.20
2022-12-25T04:32:30.381Z,96.96
2022-12-25T04:35:15.571Z,97.27
2022-12-25T04:37:42.574Z,97.41
2022-12-25T04:40:09.956Z,97.36
2022-12-25T04:42:36.778Z,97.53
2022-12-25T04:45:04.047Z,97.28
2022-12-25T04:47:32.741Z,97.52
2022-12-25T04:49:59.664Z,97.72
2022-12-25T04:52:26.795Z,97.51
2022-12-25T04:54:53.860Z,96.94
2022-12-25T04:57:20.855Z,97.20
2022-12-25T04:59:47.691Z,97.23
2022-12-25T05:02:14.957Z,97.85
2022-12-25T05:04:42.087Z,97.64
2022-12-25T05:07:08.945Z,97.54
2022-12-25T05:09:35.975Z,97.45
2022-12-25T05:12:03.033Z,97.74
2022-12-25T05:14:31.098Z,97.61
2022-12-25T05:16:58.073Z,97.68
2022-12-25T05:19:25.122Z,97.44
2022-12-25T05:21:52.236Z,97.35
2022-12-25T05:24:20.820Z,97.43
2022-12-25T05:26:47.821Z,96.99
2022-12-25T05:29:14.745Z,97.55
2022-12-25T05:31:41.801Z,97.03
2022-12-25T05:34:08.841Z,97.46
2022-12-25T05:36:35.971Z,97.15
2022-12-25T05:39:03.010Z,97.08
2022-12-25T05:41:34.191Z,96.93
2022-12-25T05:44:02.141Z,97.04
2022-12-25T05:46:29.207Z,97.04
2022-12-25T05:48:56.051Z,96.95
2022-12-25T05:51:23.084Z,96.95
2022-12-25T05:53:50.095Z,96.92
2022-12-25T05:56:17.209Z,96.87
2022-12-25T05:58:44.228Z,96.59
2022-12-25T06:01:20.356Z,96.77
2022-12-25T06:03:47.498Z,97.72
2022-12-25T06:06:14.644Z,97.03
2022-12-25T06:08:41.627Z,96.57
2022-12-25T06:11:10.015Z,96.73
2022-12-25T06:13:37.360Z,97.07
2022-12-25T06:16:09.581Z,96.83
2022-12-25T06:18:42.368Z,97.01
2022-12-25T06:21:11.722Z,96.55
2022-12-25T06:23:39.770Z,96.07
2022-12-25T06:26:10.407Z,96.21
2022-12-25T06:28:37.956Z,95.90
2022-12-25T06:31:09.544Z,95.60
2022-12-25T06:33:37.920Z,95.24
2022-12-25T06:36:11.196Z,95.02
2022-12-25T06:38:38.157Z,94.91
2022-12-25T06:41:08.203Z,94.97
2022-12-25T06:43:35.228Z,94.70
2022-12-25T06:46:04.799Z,94.44
2022-12-25T06:48:33.926Z,94.45
2022-12-25T06:51:02.811Z,94.22
2022-12-25T06:53:37.102Z,94.41
2022-12-25T06:56:15.090Z,94.07
2022-12-25T06:58:44.192Z,94.00
2022-12-25T07:01:18.633Z,93.66
2022-12-25T07:03:48.371Z,93.32
2022-12-25T07:06:15.436Z,93.32
2022-12-25T07:08:42.445Z,93.33
2022-12-25T07:11:09.264Z,93.26
2022-12-25T07:13:36.323Z,93.17
2022-12-25T07:16:05.189Z,93.76
2022-12-25T07:18:33.418Z,93.07
2022-12-25T07:21:06.765Z,92.92
2022-12-25T07:23:34.053Z,92.77
2022-12-25T07:26:02.506Z,93.88
2022-12-25T07:28:30.608Z,93.29
2022-12-25T07:31:09.612Z,93.14
2022-12-25T07:33:36.678Z,93.36
2022-12-25T07:36:05.245Z,93.26
2022-12-25T07:38:32.789Z,93.26
2022-12-25T07:41:00.101Z,93.62
2022-12-25T07:43:27.192Z,93.70
2022-12-25T07:45:59.006Z,93.47
2022-12-25T07:48:29.737Z,93.63
2022-12-25T07:51:02.932Z,93.29
2022-12-25T07:53:29.647Z,92.58
2022-12-25T07:56:04.453Z,92.58
2022-12-25T07:58:31.923Z,93.20
2022-12-25T08:01:07.189Z,93.00
2022-12-25T08:03:35.515Z,93.66
2022-12-25T08:06:05.618Z,93.83
2022-12-25T08:08:34.137Z,93.52
2022-12-25T08:11:01.438Z,93.17
2022-12-25T08:13:32.643Z,92.58
2022-12-25T08:16:07.813Z,92.55
2022-12-25T08:18:36.992Z,92.12
2022-12-25T08:21:10.542Z,91.41
2022-12-25T08:23:40.098Z,92.69
2022-12-25T08:26:10.782Z,92.14
2022-12-25T08:28:37.668Z,92.32
2022-12-25T08:31:16.911Z,92.44
2022-12-25T08:33:44.364Z,92.82
2022-12-25T08:36:12.944Z,92.20
2022-12-25T08:38:40.620Z,91.64
2022-12-25T08:41:08.928Z,91.61
2022-12-25T08:43:36.271Z,91.95
2022-12-25T08:46:03.475Z,91.88
2022-12-25T08:48:30.525Z,92.03
2022-12-25T08:50:58.097Z,91.96
2022-12-25T08:53:25.595Z,91.45
2022-12-25T08:56:04.525Z,91.33
2022-12-25T08:58:31.849Z,92.19
2022-12-25T09:00:59.912Z,92.02
2022-12-25T09:03:27.229Z,91.79
2022-12-25T09:05:55.282Z,91.80
2022-12-25T09:08:22.821Z,92.27
2022-12-25T09:10:49.981Z,91.92
2022-12-25T09:13:16.824Z,91.98
2022-12-25T09:15:43.680Z,92.39
2022-12-25T09:18:11.479Z,92.35
2022-12-25T09:20:38.442Z,92.22
2022-12-25T09:23:11.643Z,93.41
2022-12-25T09:25:40.672Z,92.76
2022-12-25T09:28:07.583Z,93.24
2022-12-25T09:30:34.653Z,92.16
2022-12-25T09:33:01.691Z,93.02
2022-12-25T09:35:28.739Z,93.10
2022-12-25T09:37:55.740Z,92.66
2022-12-25T09:40:29.799Z,93.23
2022-12-25T09:42:57.235Z,92.72
2022-12-25T09:45:34.080Z,92.83
2022-12-25T09:48:00.919Z,93.82
2022-12-25T09:50:43.592Z,93.53
2022-12-25T09:53:20.624Z,93.56
2022-12-25T09:56:16.706Z,93.93
2022-12-25T09:58:44.415Z,93.86
2022-12-25T10:01:38.037Z,93.63
2022-12-25T10:04:26.873Z,93.46
2022-12-25T10:07:23.426Z,93.35
2022-12-25T10:10:06.673Z,93.55
2022-12-25T10:12:49.906Z,93.55
2022-12-25T10:15:36.697Z,94.36
2022-12-25T10:18:36.136Z,93.17
2022-12-25T10:21:13.066Z,94.21
2022-12-25T10:23:50.024Z,93.09
2022-12-25T10:26:20.314Z,93.75
2022-12-25T10:28:58.016Z,93.49
2022-12-25T10:31:29.212Z,92.79
2022-12-25T10:33:59.561Z,93.08
2022-12-25T10:36:29.449Z,93.11
2022-12-25T10:38:57.042Z,93.87
2022-12-25T10:41:54.766Z,93.78
2022-12-25T10:44:26.331Z,93.54
2022-12-25T10:46:59.767Z,94.28
2022-12-25T10:49:32.767Z,93.66
2022-12-25T10:52:00.109Z,93.80
2022-12-25T10:54:35.034Z,93.61
2022-12-25T10:57:16.040Z,93.19
2022-12-25T10:59:49.292Z,93.82
2022-12-25T11:02:27.067Z,93.50
2022-12-25T11:05:02.594Z,93.88
2022-12-25T11:07:31.028Z,94.21
2022-12-25T11:10:06.047Z,93.91
2022-12-25T11:12:41.791Z,94.22
2022-12-25T11:15:39.137Z,94.01
2022-12-25T11:18:20.687Z,93.75
2022-12-25T11:20:57.914Z,93.86
2022-12-25T11:23:27.117Z,93.85
2022-12-25T11:26:06.452Z,93.83
2022-12-25T11:28:38.528Z,93.66
2022-12-25T11:31:20.771Z,93.77
2022-12-25T11:33:58.179Z,94.65
2022-12-25T11:36:37.514Z,94.09
2022-12-25T11:39:28.712Z,94.32
2022-12-25T11:42:12.300Z,94.47
2022-12-25T11:44:45.736Z,94.96
2022-12-25T11:47:18.605Z,94.44
2022-12-25T11:50:00.035Z,94.87
2022-12-25T11:52:33.668Z,94.33
2022-12-25T11:55:29.932Z,94.54
2022-12-25T11:58:03.053Z,94.56
2022-12-25T12:00:33.315Z,93.88
2022-12-25T12:03:12.776Z,93.84
2022-12-25T12:05:53.260Z,93.45
2022-12-25T12:08:20.293Z,94.10
2022-12-25T12:10:59.386Z,93.95
2022-12-25T12:13:43.898Z,94.86
2022-12-25T12:16:11.549Z,93.78
2022-12-25T12:18:38.500Z,94.02
2022-12-25T12:21:22.953Z,93.69
2022-12-25T12:24:18.574Z,93.60
2022-12-25T12:26:58.870Z,93.65
2022-12-25T12:29:32.043Z,93.97
2022-12-25T12:32:04.770Z,93.79
2022-12-25T12:34:35.069Z,94.05
2022-12-25T12:37:13.069Z,94.30
2022-12-25T12:39:42.478Z,94.09
2022-12-25T12:42:21.018Z,93.86
2022-12-25T12:44:50.006Z,93.64
2022-12-25T12:47:43.136Z,94.40
2022-12-25T12:50:32.233Z,94.43
2022-12-25T12:53:01.433Z,94.28
2022-12-25T12:55:32.099Z,93.86
2022-12-25T12:58:02.001Z,94.10
2022-12-25T13:01:04.127Z,93.83
2022-12-25T13:03:55.673Z,94.43
2022-12-25T13:07:04.019Z,94.70
2022-12-25T13:10:05.121Z,94.25
2022-12-25T13:12:32.062Z,94.12
2022-12-25T13:15:00.383Z,94.29
2022-12-25T13:17:29.022Z,94.04
2022-12-25T13:20:01.046Z,94.53
2022-12-25T13:22:35.095Z,94.43
2022-12-25T13:25:08.812Z,94.52
2022-12-25T13:27:35.804Z,94.61
2022-12-25T13:30:18.634Z,94.83
2022-12-25T13:32:46.141Z,94.54
2022-12-25T13:35:17.892Z,94.74
2022-12-25T13:37:45.827Z,94.70
2022-12-25T13:40:26.877Z,95.02
2022-12-25T13:43:00.987Z,94.72
2022-12-25T13:45:30.587Z,95.35
2022-12-25T13:48:14.244Z,95.36
2022-12-25T13:50:46.596Z,94.96
2022-12-25T13:53:17.237Z,95.53
2022-12-25T13:55:52.333Z,95.65
2022-12-25T13:58:26.251Z,95.02
2022-12-25T14:00:57.353Z,95.29
2022-12-25T14:03:27.132Z,95.56
2022-12-25T14:06:03.061Z,95.69
2022-12-25T14:08:33.692Z,95.91
2022-12-25T14:11:05.249Z,95.18
2022-12-25T14:13:37.575Z,95.22
2022-12-25T14:16:06.262Z,95.50
2022-12-25T14:18:34.140Z,95.39
2022-12-25T14:21:10.466Z,95.74
2022-12-25T14:23:49.740Z,96.13
2022-12-25T14:26:20.567Z,96.44
2022-12-25T14:28:59.740Z,96.53
2022-12-25T14:31:29.509Z,96.13
2022-12-25T14:33:59.638Z,96.25
2022-12-25T14:36:27.434Z,96.18
2022-12-25T14:39:04.311Z,96.43
2022-12-25T14:41:41.039Z,96.36
2022-12-25T14:44:34.592Z,96.26
2022-12-25T14:47:10.622Z,96.19
2022-12-25T14:49:38.549Z,95.95
2022-12-25T14:52:27.277Z,96.59
2022-12-25T14:55:02.050Z,96.32
2022-12-25T14:57:34.233Z,95.96
2022-12-25T15:00:07.729Z,95.94
2022-12-25T15:02:44.360Z,96.32
2022-12-25T15:05:37.258Z,96.39
2022-12-25T15:08:09.399Z,96.31
2022-12-25T15:13:28.435Z,95.91
2022-12-25T15:16:12.389Z,95.77
2022-12-25T15:18:45.897Z,95.68
2022-12-25T15:21:21.800Z,95.91
2022-12-25T15:23:48.705Z,96.21
2022-12-25T15:26:16.433Z,95.88
2022-12-25T15:28:43.483Z,96.23
2022-12-25T15:31:21.205Z,96.15
2022-12-25T15:33:49.109Z,96.08
2022-12-25T15:36:16.195Z,96.26
2022-12-25T15:38:43.539Z,96.70
2022-12-25T15:41:41.873Z,95.82
2022-12-25T15:44:11.862Z,96.18
2022-12-25T15:46:39.696Z,95.97
2022-12-25T15:49:06.909Z,96.31
2022-12-25T15:51:33.762Z,96.21
2022-12-25T15:54:00.775Z,96.57
2022-12-25T15:56:29.481Z,96.21
2022-12-25T15:58:56.472Z,95.83
2022-12-25T16:01:23.619Z,95.97
2022-12-25T16:03:50.908Z,96.30
2022-12-25T16:06:18.773Z,96.22
2022-12-25T16:08:45.683Z,95.81
2022-12-25T16:11:18.597Z,96.28
2022-12-25T16:13:45.659Z,96.24
2022-12-25T16:16:12.517Z,96.19
2022-12-25T16:18:46.749Z,96.26
2022-12-25T16:21:19.048Z,96.35
2022-12-25T16:23:46.140Z,95.83
2022-12-25T16:26:13.107Z,95.79
2022-12-25T16:28:40.027Z,95.93
2022-12-25T16:31:07.128Z,96.03
2022-12-25T16:33:34.236Z,96.42
2022-12-25T16:36:01.055Z,96.15
2022-12-25T16:38:28.065Z,96.46
2022-12-25T16:40:57.764Z,96.46
2022-12-25T16:43:25.718Z,96.47
2022-12-25T16:45:53.969Z,96.33
2022-12-25T16:48:20.801Z,95.90
2022-12-25T16:50:47.903Z,96.09
2022-12-25T16:53:14.918Z,96.00
2022-12-25T16:55:41.768Z,95.80
2022-12-25T16:58:08.629Z,96.09
2022-12-25T17:00:35.581Z,96.25
2022-12-25T17:03:02.854Z,96.12
2022-12-25T17:05:29.868Z,96.01
2022-12-25T17:07:56.691Z,96.52
2022-12-25T17:10:23.792Z,96.20
2022-12-25T17:12:50.668Z,96.07
2022-12-25T17:15:17.587Z,95.88
2022-12-25T17:17:44.722Z,96.16
2022-12-25T17:20:12.021Z,95.93
2022-12-25T17:22:39.072Z,96.52
2022-12-25T17:25:06.122Z,96.47
2022-12-25T17:27:32.984Z,96.34
2022-12-25T17:30:00.008Z,95.80
2022-12-25T17:32:26.855Z,95.81
2022-12-25T17:34:53.776Z,95.66
2022-12-25T17:37:20.798Z,96.32
2022-12-25T17:39:47.866Z,96.11
2022-12-25T17:42:14.866Z,96.40
2022-12-25T17:44:41.886Z,96.13
2022-12-25T17:47:08.757Z,96.61
2022-12-25T17:49:35.891Z,95.92
2022-12-25T17:52:02.762Z,95.81
2022-12-25T17:54:29.823Z,96.13
2022-12-25T17:56:56.865Z,96.22
2022-12-25T17:59:28.362Z,96.64
2022-12-25T18:01:55.745Z,96.34
2022-12-25T18:04:22.757Z,96.50
2022-12-25T18:06:50.092Z,96.19
2022-12-25T18:09:16.966Z,96.40
2022-12-25T18:11:44.121Z,96.39
2022-12-25T18:14:14.624Z,95.60
2022-12-25T18:16:43.895Z,96.15
2022-12-25T18:19:12.291Z,96.39
2022-12-25T18:21:39.536Z,96.46
2022-12-25T18:24:07.873Z,96.20
2022-12-25T18:26:35.920Z,96.62
2022-12-25T18:29:03.661Z,96.69
2022-12-25T18:31:30.821Z,96.87
2022-12-25T18:33:59.849Z,97.14
2022-12-25T18:36:28.123Z,96.88
2022-12-25T18:38:55.860Z,96.66
2022-12-25T18:41:23.484Z,96.85
2022-12-25T18:43:52.877Z,96.67
2022-12-25T18:46:24.437Z,96.88
2022-12-25T18:48:53.255Z,96.71
2022-12-25T18:51:20.337Z,96.76
2022-12-25T18:53:47.228Z,97.29
2022-12-25T18:56:17.259Z,96.76
2022-12-25T18:58:45.173Z,97.63
2022-12-25T19:01:24.058Z,97.32
2022-12-25T19:03:55.021Z,97.66
2022-12-25T19:06:28.233Z,97.14
2022-12-25T19:08:56.205Z,97.28
2022-12-25T19:11:23.519Z,97.55
2022-12-25T19:13:50.375Z,97.39
2022-12-25T19:16:17.828Z,97.00
2022-12-25T19:18:45.058Z,97.33
2022-12-25T19:21:11.971Z,97.64
2022-12-25T19:23:38.885Z,97.56
2022-12-25T19:26:08.597Z,97.50
2022-12-25T19:28:36.935Z,97.46
2022-12-25T19:31:09.030Z,97.83
2022-12-25T19:33:38.362Z,97.26
2022-12-25T19:36:08.352Z,97.09
2022-12-25T19:38:35.772Z,97.61
2022-12-25T19:41:10.612Z,97.26
2022-12-25T19:43:40.744Z,97.97
2022-12-25T19:46:14.477Z,97.46
2022-12-25T19:48:41.424Z,97.63
2022-12-25T19:51:19.184Z,97.53
2022-12-25T19:53:47.055Z,97.62
2022-12-25T19:56:14.791Z,97.12
2022-12-25T19:58:41.641Z,97.30
2022-12-25T20:01:12.401Z,96.82
2022-12-25T20:03:45.720Z,96.75
2022-12-25T20:06:18.688Z,96.92
2022-12-25T20:08:47.911Z,96.96
2022-12-25T20:11:15.522Z,96.73
2022-12-25T20:13:43.324Z,96.66
2022-12-25T20:16:11.316Z,96.84
2022-12-25T20:18:39.390Z,96.80
2022-12-25T20:21:12.123Z,96.30
2022-12-25T20:23:39.006Z,96.96
2022-12-25T20:26:05.943Z,96.41
2022-12-25T20:28:35.499Z,96.29
2022-12-25T20:31:07.167Z,96.46
2022-12-25T20:33:35.813Z,96.62
2022-12-25T20:36:03.928Z,96.36
2022-12-25T20:38:31.317Z,96.28
2022-12-25T20:43:55.996Z,96.24
2022-12-25T20:46:24.173Z,96.10
2022-12-25T20:48:52.659Z,96.27
2022-12-25T20:51:25.042Z,96.34
2022-12-25T20:53:52.543Z,95.83
2022-12-25T20:56:22.325Z,96.08
2022-12-25T20:58:54.782Z,95.73
2022-12-25T21:01:22.338Z,95.69
2022-12-25T21:03:50.067Z,96.13
2022-12-25T21:06:16.998Z,96.11
2022-12-25T21:08:43.978Z,96.23
2022-12-25T21:11:11.412Z,96.07
2022-12-25T21:13:41.435Z,95.97
2022-12-25T21:16:12.280Z,96.04
2022-12-25T21:18:39.405Z,95.88
2022-12-25T21:21:07.552Z,95.54
2022-12-25T21:23:36.973Z,95.70
2022-12-25T21:26:25.994Z,95.68
2022-12-25T21:28:56.044Z,96.03
2022-12-25T21:31:23.925Z,96.16
2022-12-25T21:33:54.791Z,95.87
2022-12-25T21:36:27.511Z,96.68
2022-12-25T21:39:00.574Z,96.38
2022-12-25T21:41:29.371Z,96.24
2022-12-25T21:43:56.832Z,96.50
2022-12-25T21:46:24.755Z,96.77
2022-12-25T21:48:52.418Z,96.83
2022-12-25T21:51:42.442Z,96.28
2022-12-25T21:54:10.592Z,96.40
2022-12-25T21:56:44.101Z,96.52
2022-12-25T21:59:15.292Z,96.05
2022-12-25T22:01:43.686Z,96.20
2022-12-25T22:04:12.675Z,96.75
2022-12-25T22:06:58.643Z,96.66
2022-12-25T22:09:26.263Z,96.49
2022-12-25T22:12:11.660Z,96.54
2022-12-25T22:14:54.695Z,96.42
2022-12-25T22:17:47.223Z,96.55
2022-12-25T22:20:18.199Z,96.71
2022-12-25T22:22:46.138Z,96.78
2022-12-25T22:25:14.654Z,96.64
2022-12-25T22:27:43.851Z,97.11
2022-12-25T22:30:15.078Z,96.97
2022-12-25T22:32:42.480Z,96.91
2022-12-25T22:35:10.401Z,96.85
2022-12-25T22:37:38.538Z,97.05
2022-12-25T22:40:07.402Z,97.22
2022-12-25T22:42:34.944Z,96.90
2022-12-25T22:45:03.586Z,97.26
2022-12-25T22:47:30.654Z,96.72
2022-12-25T22:49:57.816Z,96.99
2022-12-25T22:52:25.304Z,96.97
2022-12-25T22:54:52.334Z,96.97
2022-12-25T22:57:19.462Z,96.46
2022-12-25T22:59:46.456Z,96.92
2022-12-25T23:02:13.536Z,96.58
2022-12-25T23:04:40.719Z,96.82
2022-12-25T23:07:08.559Z,96.95
2022-12-25T23:09:35.616Z,96.34
2022-12-25T23:12:02.665Z,96.52
2022-12-25T23:14:38.636Z,96.76
2022-12-25T23:17:29.722Z,96.83
2022-12-25T23:20:19.030Z,96.96
2022-12-25T23:23:05.535Z,97.11
2022-12-25T23:25:53.497Z,96.83
2022-12-25T23:28:40.957Z,97.11
2022-12-25T23:31:09.275Z,96.99
2022-12-25T23:33:36.326Z,96.62
2022-12-25T23:36:03.438Z,96.91
2022-12-25T23:38:30.453Z,96.93
2022-12-25T23:40:57.471Z,96.68
2022-12-25T23:43:24.524Z,96.30
2022-12-25T23:45:51.553Z,96.63
2022-12-25T23:48:18.587Z,96.22
2022-12-25T23:50:45.617Z,96.63
2022-12-25T23:53:12.638Z,96.27
2022-12-25T23:55:42.048Z,96.66
2022-12-25T23:58:09.597Z,96.56
